createdAt,value
2024-01-07T00:02:27.153Z,14.77
2024-01-07T00:05:12.798Z,14.05
2024-01-07T00:08:01.025Z,13.30
2024-01-07T00:10:53.893Z,10.77
2024-01-07T00:13:40.453Z,8.18
2024-01-07T00:16:26.444Z,11.57
2024-01-07T00:19:12.253Z,12.57
2024-01-07T00:21:58.522Z,15.82
2024-01-07T00:24:44.875Z,14.23
2024-01-07T00:27:30.609Z,11.40
2024-01-07T00:30:16.723Z,16.88
2024-01-07T00:33:02.659Z,14.23
2024-01-07T00:35:48.957Z,14.55
2024-01-07T00:38:34.765Z,16.35
2024-01-07T00:41:20.244Z,12.35
2024-01-07T00:44:06.207Z,15.07
2024-01-07T00:46:51.674Z,11.95
2024-01-07T00:49:37.201Z,11.93
2024-01-07T00:52:24.486Z,14.10
2024-01-07T00:55:10.379Z,12.23
2024-01-07T00:57:56.154Z,12.70
2024-01-07T01:00:41.993Z,15.43
2024-01-07T01:03:28.404Z,15.13
2024-01-07T01:06:13.960Z,12.10
2024-01-07T01:09:00.091Z,9.55
2024-01-07T01:11:46.128Z,7.47
2024-01-07T01:14:31.767Z,7.28
2024-01-07T01:17:17.298Z,7.75
2024-01-07T01:20:03.130Z,8.43
2024-01-07T01:22:49.026Z,14.25
2024-01-07T01:25:34.952Z,14.82
2024-01-07T01:28:20.718Z,12.57
2024-01-07T01:31:07.236Z,12.13
2024-01-07T01:33:53.138Z,10.38
2024-01-07T01:36:39.084Z,12.43
2024-01-07T01:39:24.766Z,13.18
2024-01-07T01:42:10.848Z,12.32
2024-01-07T01:45:00.784Z,13.55
2024-01-07T01:47:48.216Z,12.20
2024-01-07T01:50:33.760Z,12.48
2024-01-07T01:53:19.352Z,10.90
2024-01-07T01:56:05.278Z,14.32
2024-01-07T01:58:50.822Z,12.27
2024-01-07T02:01:36.814Z,16.48
2024-01-07T02:04:22.910Z,15.23
2024-01-07T02:07:11.389Z,13.60
2024-01-07T02:09:57.865Z,14.98
2024-01-07T02:12:43.400Z,12.88
2024-01-07T02:15:29.425Z,11.88
2024-01-07T02:18:15.679Z,11.88
2024-01-07T02:21:01.389Z,14.85
2024-01-07T02:23:46.997Z,15.13
2024-01-07T02:26:32.292Z,13.13
2024-01-07T02:29:18.060Z,13.43
2024-01-07T02:32:03.899Z,18.42
2024-01-07T02:34:52.020Z,19.27
2024-01-07T02:37:38.208Z,16.00
2024-01-07T02:40:24.156Z,13.63
2024-01-07T02:43:10.569Z,17.60
2024-01-07T02:45:58.409Z,13.82
2024-01-07T02:48:44.151Z,16.38
2024-01-07T02:51:30.126Z,16.83
2024-01-07T02:54:16.896Z,20.08
2024-01-07T02:57:02.695Z,20.67
2024-01-07T02:59:49.552Z,15.07
2024-01-07T03:02:37.918Z,16.58
2024-01-07T03:05:24.092Z,11.30
2024-01-07T03:08:09.992Z,13.73
2024-01-07T03:10:55.824Z,10.20
2024-01-07T03:13:42.117Z,13.45
2024-01-07T03:16:30.263Z,11.10
2024-01-07T03:19:16.078Z,11.27
2024-01-07T03:22:01.628Z,12.60
2024-01-07T03:24:48.482Z,12.90
2024-01-07T03:27:34.188Z,12.07
2024-01-07T03:30:20.250Z,13.60
2024-01-07T03:33:06.320Z,14.18
2024-01-07T03:35:52.953Z,16.45
2024-01-07T03:38:39.620Z,16.85
2024-01-07T03:41:25.307Z,12.82
2024-01-07T03:44:10.956Z,14.18
2024-01-07T03:46:56.671Z,13.98
2024-01-07T03:49:42.346Z,14.23
2024-01-07T03:52:29.908Z,14.85
2024-01-07T03:55:17.558Z,14.77
2024-01-07T03:58:04.353Z,12.25
2024-01-07T04:00:50.208Z,12.35
2024-01-07T04:03:36.269Z,14.32
2024-01-07T04:06:22.277Z,12.15
2024-01-07T04:09:09.577Z,15.52
2024-01-07T04:11:55.421Z,12.25
2024-01-07T04:14:41.605Z,9.15
2024-01-07T04:17:27.570Z,9.15
2024-01-07T04:20:16.758Z,10.85
2024-01-07T04:23:02.348Z,10.38
2024-01-07T04:25:47.699Z,8.30
2024-01-07T04:28:33.363Z,9.18
2024-01-07T04:31:19.134Z,7.25
2024-01-07T04:34:05.443Z,10.90
2024-01-07T04:36:52.168Z,7.93
2024-01-07T04:39:37.673Z,10.32
2024-01-07T04:42:23.574Z,8.10
2024-01-07T04:45:09.441Z,10.77
2024-01-07T04:47:55.270Z,10.10
2024-01-07T04:50:43.235Z,9.15
2024-01-07T04:53:31.378Z,10.30
2024-01-07T04:56:17.079Z,8.82
2024-01-07T04:59:03.139Z,10.07
2024-01-07T05:01:48.874Z,8.68
2024-01-07T05:04:34.771Z,11.55
2024-01-07T05:07:20.914Z,9.55
2024-01-07T05:10:07.906Z,15.82
2024-01-07T05:12:53.457Z,17.27
2024-01-07T05:15:39.627Z,18.58
2024-01-07T05:18:28.468Z,15.57
2024-01-07T05:21:14.149Z,12.77
2024-01-07T05:23:59.845Z,20.27
2024-01-07T05:26:46.619Z,12.48
2024-01-07T05:29:34.727Z,10.75
2024-01-07T05:32:20.612Z,21.00
2024-01-07T05:35:06.233Z,16.65
2024-01-07T05:37:51.816Z,20.17
2024-01-07T05:40:39.694Z,21.58
2024-01-07T05:43:27.613Z,27.30
2024-01-07T05:46:13.589Z,14.77
2024-01-07T05:48:59.620Z,14.35
2024-01-07T05:51:45.620Z,12.73
2024-01-07T05:54:32.343Z,12.13
2024-01-07T05:57:18.393Z,10.85
2024-01-07T06:00:05.223Z,11.35
2024-01-07T06:02:51.120Z,12.32
2024-01-07T06:05:38.957Z,11.98
2024-01-07T06:08:24.744Z,9.90
2024-01-07T06:11:12.034Z,9.68
2024-01-07T06:13:57.846Z,10.30
2024-01-07T06:16:43.854Z,12.32
2024-01-07T06:19:31.176Z,13.60
2024-01-07T06:22:17.010Z,12.00
2024-01-07T06:25:06.576Z,10.68
2024-01-07T06:27:52.920Z,10.82
2024-01-07T06:30:38.890Z,12.32
2024-01-07T06:33:24.870Z,7.63
2024-01-07T06:36:13.184Z,8.07
2024-01-07T06:38:58.721Z,10.32
2024-01-07T06:41:44.656Z,13.10
2024-01-07T06:44:30.159Z,8.48
2024-01-07T06:47:16.897Z,12.52
2024-01-07T06:50:02.468Z,8.68
2024-01-07T06:52:48.533Z,6.03
2024-01-07T06:55:34.023Z,8.65
2024-01-07T06:58:20.363Z,7.43
2024-01-07T07:01:11.260Z,7.82
2024-01-07T07:03:57.457Z,9.80
2024-01-07T07:06:43.393Z,9.23
2024-01-07T07:09:28.886Z,10.88
2024-01-07T07:12:15.163Z,18.08
2024-01-07T07:15:00.701Z,13.93
2024-01-07T07:17:47.507Z,10.88
2024-01-07T07:20:33.223Z,13.13
2024-01-07T07:23:19.450Z,6.57
2024-01-07T07:26:05.452Z,11.43
2024-01-07T07:28:51.121Z,11.82
2024-01-07T07:31:37.543Z,10.13
2024-01-07T07:34:23.506Z,11.23
2024-01-07T07:37:09.363Z,9.30
2024-01-07T07:39:55.681Z,10.93
2024-01-07T07:42:41.430Z,15.00
2024-01-07T07:45:26.896Z,10.63
2024-01-07T07:48:12.575Z,13.70
2024-01-07T07:50:58.335Z,9.07
2024-01-07T07:53:43.929Z,10.30
2024-01-07T07:56:29.984Z,12.02
2024-01-07T07:59:15.748Z,8.88
2024-01-07T08:02:01.791Z,13.48
2024-01-07T08:04:48.430Z,10.65
2024-01-07T08:07:34.119Z,11.20
2024-01-07T08:10:20.524Z,11.07
2024-01-07T08:13:07.691Z,12.38
2024-01-07T08:15:53.546Z,13.27
2024-01-07T08:18:39.578Z,17.33
2024-01-07T08:21:26.135Z,23.40
2024-01-07T08:24:12.374Z,19.08
2024-01-07T08:26:58.030Z,15.57
2024-01-07T08:29:46.757Z,13.00
2024-01-07T08:32:32.263Z,15.57
2024-01-07T08:35:20.139Z,15.10
2024-01-07T08:38:06.319Z,12.07
2024-01-07T08:40:51.854Z,14.27
2024-01-07T08:43:37.482Z,15.48
2024-01-07T08:46:22.940Z,17.88
2024-01-07T08:49:08.685Z,14.50
2024-01-07T08:51:57.529Z,15.50
2024-01-07T08:54:43.379Z,14.52
2024-01-07T08:57:29.161Z,14.18
2024-01-07T09:00:15.494Z,11.15
2024-01-07T09:03:01.559Z,12.55
2024-01-07T09:05:47.701Z,13.40
2024-01-07T09:08:33.540Z,14.02
2024-01-07T09:11:23.236Z,15.73
2024-01-07T09:14:09.528Z,14.30
2024-01-07T09:16:55.527Z,19.38
2024-01-07T09:19:41.426Z,25.67
2024-01-07T09:22:27.454Z,21.17
2024-01-07T09:25:15.681Z,18.23
2024-01-07T09:28:02.022Z,20.80
2024-01-07T09:30:47.689Z,24.95
2024-01-07T09:33:33.697Z,16.08
2024-01-07T09:36:26.550Z,16.08
2024-01-07T09:39:16.243Z,14.43
2024-01-07T09:42:02.410Z,15.93
2024-01-07T09:44:49.228Z,15.13
2024-01-07T09:47:36.544Z,15.75
2024-01-07T09:50:24.591Z,20.08
2024-01-07T09:53:17.725Z,15.50
2024-01-07T09:56:24.253Z,15.43
2024-01-07T09:59:10.625Z,13.43
2024-01-07T10:01:58.368Z,12.32
2024-01-07T10:04:46.153Z,14.20
2024-01-07T10:07:31.882Z,17.33
2024-01-07T10:10:23.755Z,15.15
2024-01-07T10:13:10.281Z,20.83
2024-01-07T10:15:58.789Z,12.13
2024-01-07T10:18:44.911Z,12.55
2024-01-07T10:21:33.265Z,15.13
2024-01-07T10:24:19.180Z,11.55
2024-01-07T10:27:06.097Z,13.93
2024-01-07T10:29:52.137Z,13.60
2024-01-07T10:32:40.400Z,14.35
2024-01-07T10:35:37.357Z,18.35
2024-01-07T10:38:26.008Z,16.20
2024-01-07T10:41:13.015Z,18.88
2024-01-07T10:44:00.840Z,16.50
2024-01-07T10:46:48.154Z,16.23
2024-01-07T10:49:36.513Z,20.13
2024-01-07T10:52:24.885Z,15.40
2024-01-07T10:55:12.882Z,14.18
2024-01-07T10:57:59.695Z,14.27
2024-01-07T11:00:45.619Z,16.92
2024-01-07T11:03:57.663Z,12.60
2024-01-07T11:07:12.187Z,11.02
2024-01-07T11:10:11.881Z,11.75
2024-01-07T11:13:00.916Z,10.35
2024-01-07T11:15:49.919Z,15.10
2024-01-07T11:18:38.932Z,13.52
2024-01-07T11:21:27.934Z,15.82
2024-01-07T11:24:42.596Z,19.83
2024-01-07T11:27:34.435Z,18.38
2024-01-07T11:30:21.211Z,24.48
2024-01-07T11:33:07.165Z,14.70
2024-01-07T11:36:03.987Z,14.98
2024-01-07T11:38:54.336Z,19.20
2024-01-07T11:41:41.459Z,16.50
2024-01-07T11:44:27.271Z,17.23
2024-01-07T11:47:12.989Z,23.52
2024-01-07T11:49:58.826Z,26.17
2024-01-07T11:52:44.775Z,22.98
2024-01-07T11:55:34.113Z,17.98
2024-01-07T11:58:19.720Z,14.32
2024-01-07T12:01:05.566Z,15.75
2024-01-07T12:03:51.806Z,13.98
2024-01-07T12:06:37.696Z,12.00
2024-01-07T12:09:23.735Z,16.75
2024-01-07T12:12:09.449Z,18.05
2024-01-07T12:14:55.408Z,20.58
2024-01-07T12:17:41.770Z,20.90
2024-01-07T12:20:29.088Z,29.42
2024-01-07T12:23:14.688Z,16.23
2024-01-07T12:26:10.494Z,22.10
2024-01-07T12:29:01.114Z,18.05
2024-01-07T12:31:48.168Z,15.52
2024-01-07T12:34:34.497Z,17.42
2024-01-07T12:37:20.455Z,18.25
2024-01-07T12:40:10.289Z,16.13
2024-01-07T12:42:56.168Z,16.33
2024-01-07T12:45:41.657Z,15.85
2024-01-07T12:48:29.667Z,14.63
2024-01-07T12:51:15.293Z,18.38
2024-01-07T12:54:04.742Z,16.25
2024-01-07T12:56:50.665Z,18.48
2024-01-07T12:59:36.174Z,21.67
2024-01-07T13:02:22.350Z,21.17
2024-01-07T13:05:09.306Z,20.75
2024-01-07T13:07:55.400Z,23.13
2024-01-07T13:10:41.313Z,16.33
2024-01-07T13:13:27.058Z,18.60
2024-01-07T13:16:12.649Z,17.23
2024-01-07T13:18:58.593Z,22.17
2024-01-07T13:21:44.410Z,25.25
2024-01-07T13:24:29.817Z,31.58
2024-01-07T13:27:19.833Z,26.73
2024-01-07T13:30:09.371Z,25.65
2024-01-07T13:32:58.672Z,18.02
2024-01-07T13:35:45.398Z,21.02
2024-01-07T13:38:32.079Z,17.40
2024-01-07T13:41:18.353Z,15.38
2024-01-07T13:44:06.424Z,20.25
2024-01-07T13:46:53.309Z,20.13
2024-01-07T13:49:39.217Z,20.65
2024-01-07T13:52:27.227Z,19.40
2024-01-07T13:55:16.467Z,20.45
2024-01-07T13:58:02.330Z,23.45
2024-01-07T14:00:48.309Z,22.55
2024-01-07T14:03:36.962Z,22.15
2024-01-07T14:06:23.211Z,17.05
2024-01-07T14:09:10.194Z,17.33
2024-01-07T14:11:56.060Z,25.15
2024-01-07T14:14:41.626Z,23.55
2024-01-07T14:17:27.805Z,27.70
2024-01-07T14:20:14.086Z,24.42
2024-01-07T14:23:00.077Z,19.05
2024-01-07T14:25:45.948Z,21.83
2024-01-07T14:28:31.723Z,21.20
2024-01-07T14:31:18.225Z,20.98
2024-01-07T14:34:04.207Z,21.13
2024-01-07T14:36:50.233Z,20.63
2024-01-07T14:39:36.287Z,19.20
2024-01-07T14:42:22.221Z,22.15
2024-01-07T14:45:08.520Z,18.95
2024-01-07T14:47:54.718Z,23.80
2024-01-07T14:50:42.209Z,21.08
2024-01-07T14:53:29.787Z,26.52
2024-01-07T14:56:15.409Z,20.92
2024-01-07T14:59:01.020Z,19.83
2024-01-07T15:01:46.744Z,21.55
2024-01-07T15:04:32.781Z,25.25
2024-01-07T15:07:20.181Z,23.90
2024-01-07T15:10:08.559Z,18.83
2024-01-07T15:13:02.236Z,17.35
2024-01-07T15:15:52.858Z,17.75
2024-01-07T15:18:39.262Z,19.17
2024-01-07T15:21:25.795Z,15.32
2024-01-07T15:24:12.962Z,15.90
2024-01-07T15:26:58.772Z,16.88
2024-01-07T15:29:44.341Z,22.17
2024-01-07T15:32:30.103Z,17.80
2024-01-07T15:35:15.617Z,15.77
2024-01-07T15:38:01.090Z,19.58
2024-01-07T15:40:46.555Z,29.05
2024-01-07T15:43:31.962Z,22.70
2024-01-07T15:46:17.949Z,20.27
2024-01-07T15:49:03.900Z,23.00
2024-01-07T15:51:49.864Z,22.80
2024-01-07T15:54:35.788Z,20.73
2024-01-07T15:57:21.824Z,31.50
2024-01-07T16:00:09.502Z,26.73
2024-01-07T16:02:55.708Z,22.45
2024-01-07T16:05:41.257Z,33.50
2024-01-07T16:08:31.544Z,25.20
2024-01-07T16:11:18.968Z,26.90
2024-01-07T16:14:04.922Z,19.83
2024-01-07T16:16:50.312Z,22.17
2024-01-07T16:19:35.847Z,13.45
2024-01-07T16:22:21.797Z,19.85
2024-01-07T16:25:09.003Z,25.50
2024-01-07T16:27:56.219Z,25.13
2024-01-07T16:30:41.893Z,19.08
2024-01-07T16:33:28.018Z,17.95
2024-01-07T16:36:14.177Z,17.52
2024-01-07T16:39:02.344Z,14.70
2024-01-07T16:41:48.059Z,24.10
2024-01-07T16:44:35.583Z,26.20
2024-01-07T16:47:21.101Z,26.23
2024-01-07T16:52:58.827Z,20.10
2024-01-07T16:55:44.648Z,25.63
2024-01-07T16:58:30.617Z,19.52
2024-01-07T17:01:19.356Z,16.52
2024-01-07T17:04:06.235Z,19.40
2024-01-07T17:06:52.140Z,25.40
2024-01-07T17:09:38.157Z,24.73
2024-01-07T17:12:23.852Z,27.70
2024-01-07T17:15:10.712Z,24.75
2024-01-07T17:17:59.376Z,26.60
2024-01-07T17:20:45.319Z,30.42
2024-01-07T17:23:31.199Z,21.13
2024-01-07T17:26:17.172Z,29.30
2024-01-07T17:29:03.387Z,24.55
2024-01-07T17:31:49.056Z,24.85
2024-01-07T17:34:34.573Z,20.33
2024-01-07T17:37:20.242Z,21.02
2024-01-07T17:40:07.170Z,25.38
2024-01-07T17:42:57.448Z,23.70
2024-01-07T17:45:43.335Z,23.20
2024-01-07T17:48:29.512Z,27.83
2024-01-07T17:51:20.214Z,27.05
2024-01-07T17:54:05.965Z,24.67
2024-01-07T17:56:52.361Z,25.25
2024-01-07T17:59:38.168Z,26.52
2024-01-07T18:02:24.870Z,16.50
2024-01-07T18:05:11.021Z,29.63
2024-01-07T18:07:57.079Z,26.58
2024-01-07T18:10:44.525Z,28.10
2024-01-07T18:13:30.904Z,26.20
2024-01-07T18:16:16.382Z,24.05
2024-01-07T18:19:03.027Z,28.75
2024-01-07T18:21:51.128Z,25.45
2024-01-07T18:24:36.767Z,28.23
2024-01-07T18:27:22.254Z,29.42
2024-01-07T18:30:08.843Z,22.70
2024-01-07T18:32:54.929Z,33.90
2024-01-07T18:35:42.730Z,34.67
2024-01-07T18:38:30.732Z,36.40
2024-01-07T18:41:22.519Z,35.58
2024-01-07T18:44:11.709Z,32.97
2024-01-07T18:46:57.493Z,34.10
2024-01-07T18:49:43.473Z,35.42
2024-01-07T18:52:29.726Z,31.40
2024-01-07T18:55:15.998Z,33.08
2024-01-07T18:58:01.566Z,32.03
2024-01-07T19:00:48.773Z,32.78
2024-01-07T19:03:34.873Z,32.72
2024-01-07T19:06:20.438Z,33.63
2024-01-07T19:09:06.732Z,37.60
2024-01-07T19:11:55.754Z,45.28
2024-01-07T19:14:43.909Z,37.00
2024-01-07T19:17:30.223Z,38.70
2024-01-07T19:20:16.887Z,33.97
2024-01-07T19:23:03.048Z,33.50
2024-01-07T19:25:51.330Z,41.22
2024-01-07T19:28:38.046Z,32.63
2024-01-07T19:31:25.602Z,37.15
2024-01-07T19:34:11.322Z,38.92
2024-01-07T19:36:58.096Z,47.53
2024-01-07T19:39:43.838Z,44.55
2024-01-07T19:42:29.636Z,45.53
2024-01-07T19:45:29.612Z,38.80
2024-01-07T19:48:16.111Z,35.88
2024-01-07T19:51:05.345Z,44.75
2024-01-07T19:53:53.440Z,50.28
2024-01-07T19:56:39.204Z,43.83
2024-01-07T19:59:25.024Z,41.60
2024-01-07T20:02:17.379Z,39.20
2024-01-07T20:05:03.429Z,42.15
2024-01-07T20:07:52.174Z,35.42
2024-01-07T20:10:37.661Z,39.10
2024-01-07T20:13:24.172Z,34.80
2024-01-07T20:16:09.806Z,43.88
2024-01-07T20:18:59.524Z,36.85
2024-01-07T20:21:45.231Z,36.28
2024-01-07T20:24:30.798Z,40.47
2024-01-07T20:27:17.145Z,37.13
2024-01-07T20:30:05.165Z,36.90
2024-01-07T20:32:50.833Z,37.58
2024-01-07T20:35:37.929Z,38.88
2024-01-07T20:38:24.788Z,39.35
2024-01-07T20:41:11.264Z,39.13
2024-01-07T20:43:57.123Z,36.00
2024-01-07T20:46:45.486Z,34.22
2024-01-07T20:49:31.533Z,34.80
2024-01-07T20:52:19.973Z,38.05
2024-01-07T20:55:06.249Z,40.03
2024-01-07T20:57:52.277Z,37.47
2024-01-07T21:00:38.675Z,42.35
2024-01-07T21:03:25.691Z,36.95
2024-01-07T21:06:11.703Z,37.50
2024-01-07T21:08:57.886Z,37.25
2024-01-07T21:11:43.556Z,35.70
2024-01-07T21:14:29.383Z,40.35
2024-01-07T21:17:15.637Z,40.03
2024-01-07T21:20:01.380Z,30.20
2024-01-07T21:22:47.279Z,41.63
2024-01-07T21:25:33.565Z,36.97
2024-01-07T21:28:19.709Z,34.13
2024-01-07T21:31:06.841Z,36.97
2024-01-07T21:33:54.548Z,39.35
2024-01-07T21:36:43.635Z,37.72
2024-01-07T21:39:29.208Z,36.22
2024-01-07T21:42:16.833Z,43.30
2024-01-07T21:45:05.862Z,35.08
2024-01-07T21:47:51.453Z,34.67
2024-01-07T21:50:37.151Z,34.83
2024-01-07T21:53:23.402Z,38.25
2024-01-07T21:56:09.477Z,44.33
2024-01-07T21:58:55.412Z,39.10
2024-01-07T22:01:41.762Z,44.70
2024-01-07T22:04:28.222Z,40.80
2024-01-07T22:07:13.772Z,35.92
2024-01-07T22:09:59.499Z,40.95
2024-01-07T22:12:45.288Z,37.45
2024-01-07T22:15:31.572Z,43.83
2024-01-07T22:18:17.576Z,38.53
2024-01-07T22:21:03.703Z,50.80
2024-01-07T22:23:49.604Z,38.50
2024-01-07T22:26:35.613Z,40.95
2024-01-07T22:29:23.737Z,38.10
2024-01-07T22:32:09.343Z,52.75
2024-01-07T22:34:56.567Z,50.65
2024-01-07T22:37:43.620Z,56.03
2024-01-07T22:40:30.220Z,48.83
2024-01-07T22:43:18.925Z,48.83
2024-01-07T22:46:06.317Z,49.05
2024-01-07T22:48:51.928Z,47.42
2024-01-07T22:51:43.406Z,46.13
2024-01-07T22:54:32.652Z,44.70
2024-01-07T22:57:18.530Z,52.40
2024-01-07T23:00:06.531Z,45.70
2024-01-07T23:02:52.881Z,47.75
2024-01-07T23:05:39.925Z,42.58
2024-01-07T23:08:28.419Z,43.85
2024-01-07T23:11:13.991Z,40.85
2024-01-07T23:14:00.342Z,39.47
2024-01-07T23:16:46.217Z,48.65
2024-01-07T23:19:32.217Z,44.28
2024-01-07T23:22:18.159Z,36.33
2024-01-07T23:25:04.528Z,36.17
2024-01-07T23:27:50.704Z,38.55
2024-01-07T23:30:36.587Z,36.58
2024-01-07T23:33:22.387Z,34.75
2024-01-07T23:36:08.401Z,38.65
2024-01-07T23:38:54.137Z,44.40
2024-01-07T23:41:39.777Z,40.15
2024-01-07T23:44:26.029Z,27.10
2024-01-07T23:47:11.932Z,34.47
2024-01-07T23:49:57.734Z,38.55
2024-01-07T23:52:43.377Z,36.83
2024-01-07T23:55:28.856Z,39.80
2024-01-07T23:58:16.973Z,42.00
